sensor_id;sensor_type;location;lat;lon;timestamp;P1;durP1;ratioP1;P2;durP2;ratioP2
10114;SDS011;5097;43.260;27.812;2023-07-13T00:01:11;13.45;;;10.80;;
10114;SDS011;5097;43.260;27.812;2023-07-13T00:03:55;12.05;;;10.82;;
10114;SDS011;5097;43.260;27.812;2023-07-13T00:06:40;12.00;;;10.77;;
10114;SDS011;5097;43.260;27.812;2023-07-13T00:09:27;12.85;;;11.55;;
10114;SDS011;5097;43.260;27.812;2023-07-13T00:12:21;13.73;;;12.43;;
10114;SDS011;5097;43.260;27.812;2023-07-13T00:15:11;14.70;;;13.25;;
10114;SDS011;5097;43.260;27.812;2023-07-13T00:17:58;14.35;;;13.05;;
10114;SDS011;5097;43.260;27.812;2023-07-13T00:20:43;15.68;;;12.82;;
10114;SDS011;5097;43.260;27.812;2023-07-13T00:23:27;11.85;;;10.85;;
10114;SDS011;5097;43.260;27.812;2023-07-13T00:26:11;14.13;;;12.65;;
10114;SDS011;5097;43.260;27.812;2023-07-13T00:28:56;13.88;;;12.57;;
10114;SDS011;5097;43.260;27.812;2023-07-13T00:31:42;14.50;;;12.95;;
10114;SDS011;5097;43.260;27.812;2023-07-13T00:34:27;14.20;;;12.73;;
10114;SDS011;5097;43.260;27.812;2023-07-13T00:37:11;13.82;;;12.55;;
10114;SDS011;5097;43.260;27.812;2023-07-13T00:39:55;15.40;;;13.55;;
10114;SDS011;5097;43.260;27.812;2023-07-13T00:42:39;14.70;;;13.27;;
10114;SDS011;5097;43.260;27.812;2023-07-13T00:48:42;14.90;;;13.50;;
10114;SDS011;5097;43.260;27.812;2023-07-13T00:51:31;13.93;;;12.60;;
10114;SDS011;5097;43.260;27.812;2023-07-13T00:54:21;14.82;;;13.32;;
10114;SDS011;5097;43.260;27.812;2023-07-13T00:57:12;14.80;;;13.68;;
10114;SDS011;5097;43.260;27.812;2023-07-13T00:59:58;15.70;;;13.90;;
10114;SDS011;5097;43.260;27.812;2023-07-13T01:02:49;15.90;;;14.50;;
10114;SDS011;5097;43.260;27.812;2023-07-13T01:05:35;15.20;;;13.95;;
10114;SDS011;5097;43.260;27.812;2023-07-13T01:08:20;16.38;;;14.80;;
10114;SDS011;5097;43.260;27.812;2023-07-13T01:11:04;16.63;;;15.13;;
10114;SDS011;5097;43.260;27.812;2023-07-13T01:13:49;17.00;;;15.52;;
10114;SDS011;5097;43.260;27.812;2023-07-13T01:16:33;16.42;;;15.02;;
10114;SDS011;5097;43.260;27.812;2023-07-13T01:19:31;16.17;;;14.63;;
10114;SDS011;5097;43.260;27.812;2023-07-13T01:22:21;15.23;;;13.82;;
10114;SDS011;5097;43.260;27.812;2023-07-13T01:25:08;16.23;;;14.40;;
10114;SDS011;5097;43.260;27.812;2023-07-13T01:27:52;16.95;;;15.07;;
10114;SDS011;5097;43.260;27.812;2023-07-13T01:30:37;16.30;;;15.00;;
10114;SDS011;5097;43.260;27.812;2023-07-13T01:33:22;19.02;;;17.27;;
10114;SDS011;5097;43.260;27.812;2023-07-13T01:36:08;17.08;;;15.68;;
10114;SDS011;5097;43.260;27.812;2023-07-13T01:38:55;16.85;;;15.35;;
10114;SDS011;5097;43.260;27.812;2023-07-13T01:41:39;16.50;;;15.05;;
10114;SDS011;5097;43.260;27.812;2023-07-13T01:44:23;16.98;;;15.57;;
10114;SDS011;5097;43.260;27.812;2023-07-13T01:47:08;17.88;;;16.17;;
10114;SDS011;5097;43.260;27.812;2023-07-13T01:49:52;16.77;;;15.40;;
10114;SDS011;5097;43.260;27.812;2023-07-13T01:52:36;17.35;;;15.82;;
10114;SDS011;5097;43.260;27.812;2023-07-13T01:55:21;17.98;;;16.40;;
10114;SDS011;5097;43.260;27.812;2023-07-13T01:58:05;19.38;;;17.30;;
10114;SDS011;5097;43.260;27.812;2023-07-13T02:00:50;17.55;;;16.05;;
10114;SDS011;5097;43.260;27.812;2023-07-13T02:03:35;16.98;;;15.38;;
10114;SDS011;5097;43.260;27.812;2023-07-13T02:06:19;17.67;;;15.55;;
10114;SDS011;5097;43.260;27.812;2023-07-13T02:09:03;19.52;;;17.35;;
10114;SDS011;5097;43.260;27.812;2023-07-13T02:11:49;16.23;;;14.93;;
10114;SDS011;5097;43.260;27.812;2023-07-13T02:14:33;18.00;;;16.30;;
10114;SDS011;5097;43.260;27.812;2023-07-13T02:17:18;17.33;;;15.80;;
10114;SDS011;5097;43.260;27.812;2023-07-13T02:20:03;17.52;;;16.15;;
10114;SDS011;5097;43.260;27.812;2023-07-13T02:22:48;18.75;;;17.05;;
10114;SDS011;5097;43.260;27.812;2023-07-13T02:25:35;17.73;;;16.20;;
10114;SDS011;5097;43.260;27.812;2023-07-13T02:28:21;17.90;;;16.23;;
10114;SDS011;5097;43.260;27.812;2023-07-13T02:31:05;18.40;;;16.75;;
10114;SDS011;5097;43.260;27.812;2023-07-13T02:33:51;18.17;;;16.48;;
10114;SDS011;5097;43.260;27.812;2023-07-13T02:36:34;17.63;;;15.95;;
10114;SDS011;5097;43.260;27.812;2023-07-13T02:39:18;16.55;;;15.05;;
10114;SDS011;5097;43.260;27.812;2023-07-13T02:42:03;16.58;;;15.18;;
10114;SDS011;5097;43.260;27.812;2023-07-13T02:44:49;17.35;;;15.75;;
10114;SDS011;5097;43.260;27.812;2023-07-13T02:47:33;18.15;;;16.48;;
10114;SDS011;5097;43.260;27.812;2023-07-13T02:50:17;19.40;;;17.40;;
10114;SDS011;5097;43.260;27.812;2023-07-13T02:53:01;18.23;;;16.52;;
10114;SDS011;5097;43.260;27.812;2023-07-13T02:55:45;17.35;;;15.73;;
10114;SDS011;5097;43.260;27.812;2023-07-13T02:58:30;17.80;;;16.10;;
10114;SDS011;5097;43.260;27.812;2023-07-13T03:01:15;17.45;;;15.85;;
10114;SDS011;5097;43.260;27.812;2023-07-13T03:04:01;16.52;;;14.93;;
10114;SDS011;5097;43.260;27.812;2023-07-13T03:06:49;18.00;;;16.10;;
10114;SDS011;5097;43.260;27.812;2023-07-13T03:09:33;16.58;;;14.90;;
10114;SDS011;5097;43.260;27.812;2023-07-13T03:12:20;16.25;;;14.75;;
10114;SDS011;5097;43.260;27.812;2023-07-13T03:15:06;16.30;;;14.70;;
10114;SDS011;5097;43.260;27.812;2023-07-13T03:17:55;15.80;;;14.32;;
10114;SDS011;5097;43.260;27.812;2023-07-13T03:20:39;14.65;;;13.35;;
10114;SDS011;5097;43.260;27.812;2023-07-13T03:23:23;15.82;;;14.32;;
10114;SDS011;5097;43.260;27.812;2023-07-13T03:26:09;16.08;;;14.45;;
10114;SDS011;5097;43.260;27.812;2023-07-13T03:28:56;18.50;;;16.60;;
10114;SDS011;5097;43.260;27.812;2023-07-13T03:31:40;16.90;;;15.18;;
10114;SDS011;5097;43.260;27.812;2023-07-13T03:34:25;16.67;;;13.88;;
10114;SDS011;5097;43.260;27.812;2023-07-13T03:37:09;15.93;;;14.48;;
10114;SDS011;5097;43.260;27.812;2023-07-13T03:39:53;14.15;;;12.95;;
10114;SDS011;5097;43.260;27.812;2023-07-13T03:42:37;14.88;;;13.68;;
10114;SDS011;5097;43.260;27.812;2023-07-13T03:45:22;14.13;;;12.82;;
10114;SDS011;5097;43.260;27.812;2023-07-13T03:48:06;14.82;;;13.43;;
10114;SDS011;5097;43.260;27.812;2023-07-13T03:50:51;14.52;;;12.95;;
10114;SDS011;5097;43.260;27.812;2023-07-13T03:53:37;14.65;;;13.30;;
10114;SDS011;5097;43.260;27.812;2023-07-13T03:56:23;14.43;;;13.13;;
10114;SDS011;5097;43.260;27.812;2023-07-13T03:59:07;15.07;;;13.70;;
10114;SDS011;5097;43.260;27.812;2023-07-13T04:01:51;14.77;;;12.68;;
10114;SDS011;5097;43.260;27.812;2023-07-13T04:04:35;15.52;;;13.90;;
10114;SDS011;5097;43.260;27.812;2023-07-13T04:07:24;15.57;;;13.45;;
10114;SDS011;5097;43.260;27.812;2023-07-13T04:10:08;16.58;;;12.85;;
10114;SDS011;5097;43.260;27.812;2023-07-13T04:12:53;14.57;;;13.10;;
10114;SDS011;5097;43.260;27.812;2023-07-13T04:15:38;16.80;;;12.27;;
10114;SDS011;5097;43.260;27.812;2023-07-13T04:18:22;13.73;;;12.30;;
10114;SDS011;5097;43.260;27.812;2023-07-13T04:21:06;16.15;;;14.25;;
10114;SDS011;5097;43.260;27.812;2023-07-13T04:23:52;16.08;;;14.48;;
10114;SDS011;5097;43.260;27.812;2023-07-13T04:26:36;15.68;;;13.90;;
10114;SDS011;5097;43.260;27.812;2023-07-13T04:29:20;14.27;;;12.95;;
10114;SDS011;5097;43.260;27.812;2023-07-13T04:32:04;14.05;;;12.60;;
10114;SDS011;5097;43.260;27.812;2023-07-13T04:34:49;13.75;;;12.55;;
10114;SDS011;5097;43.260;27.812;2023-07-13T04:37:35;13.65;;;12.30;;
10114;SDS011;5097;43.260;27.812;2023-07-13T04:40:20;13.40;;;12.20;;
10114;SDS011;5097;43.260;27.812;2023-07-13T04:43:04;15.75;;;12.68;;
10114;SDS011;5097;43.260;27.812;2023-07-13T04:45:49;12.95;;;11.63;;
10114;SDS011;5097;43.260;27.812;2023-07-13T04:48:34;14.57;;;12.07;;
10114;SDS011;5097;43.260;27.812;2023-07-13T04:51:18;13.82;;;11.98;;
10114;SDS011;5097;43.260;27.812;2023-07-13T04:54:02;12.50;;;11.38;;
10114;SDS011;5097;43.260;27.812;2023-07-13T04:56:48;12.85;;;11.07;;
10114;SDS011;5097;43.260;27.812;2023-07-13T04:59:32;12.57;;;11.27;;
10114;SDS011;5097;43.260;27.812;2023-07-13T05:02:16;13.75;;;10.80;;
10114;SDS011;5097;43.260;27.812;2023-07-13T05:05:03;13.00;;;11.80;;
10114;SDS011;5097;43.260;27.812;2023-07-13T05:07:47;13.50;;;12.20;;
10114;SDS011;5097;43.260;27.812;2023-07-13T05:10:31;14.90;;;11.57;;
10114;SDS011;5097;43.260;27.812;2023-07-13T05:13:16;16.10;;;13.00;;
10114;SDS011;5097;43.260;27.812;2023-07-13T05:16:01;13.73;;;12.30;;
10114;SDS011;5097;43.260;27.812;2023-07-13T05:18:46;13.10;;;12.00;;
10114;SDS011;5097;43.260;27.812;2023-07-13T05:21:30;13.35;;;11.93;;
10114;SDS011;5097;43.260;27.812;2023-07-13T05:24:14;14.55;;;11.85;;
10114;SDS011;5097;43.260;27.812;2023-07-13T05:27:07;16.27;;;12.52;;
10114;SDS011;5097;43.260;27.812;2023-07-13T05:29:52;16.33;;;14.50;;
10114;SDS011;5097;43.260;27.812;2023-07-13T05:32:36;15.38;;;12.43;;
10114;SDS011;5097;43.260;27.812;2023-07-13T05:35:20;15.43;;;12.75;;
10114;SDS011;5097;43.260;27.812;2023-07-13T05:38:04;14.60;;;12.50;;
10114;SDS011;5097;43.260;27.812;2023-07-13T05:40:48;12.65;;;11.45;;
10114;SDS011;5097;43.260;27.812;2023-07-13T05:43:33;13.65;;;12.23;;
10114;SDS011;5097;43.260;27.812;2023-07-13T05:46:19;13.77;;;10.82;;
10114;SDS011;5097;43.260;27.812;2023-07-13T05:49:03;18.48;;;11.48;;
10114;SDS011;5097;43.260;27.812;2023-07-13T05:51:47;12.15;;;11.15;;
10114;SDS011;5097;43.260;27.812;2023-07-13T05:54:31;13.60;;;12.25;;
10114;SDS011;5097;43.260;27.812;2023-07-13T05:57:15;12.77;;;11.48;;
10114;SDS011;5097;43.260;27.812;2023-07-13T05:59:59;13.10;;;11.90;;
10114;SDS011;5097;43.260;27.812;2023-07-13T06:02:55;12.05;;;10.90;;
10114;SDS011;5097;43.260;27.812;2023-07-13T06:05:41;12.95;;;10.88;;
10114;SDS011;5097;43.260;27.812;2023-07-13T06:08:25;15.05;;;12.18;;
10114;SDS011;5097;43.260;27.812;2023-07-13T06:11:10;13.65;;;10.90;;
10114;SDS011;5097;43.260;27.812;2023-07-13T06:13:57;12.50;;;10.98;;
10114;SDS011;5097;43.260;27.812;2023-07-13T06:16:41;12.50;;;11.40;;
10114;SDS011;5097;43.260;27.812;2023-07-13T06:19:27;14.02;;;11.90;;
10114;SDS011;5097;43.260;27.812;2023-07-13T06:22:11;12.80;;;11.52;;
10114;SDS011;5097;43.260;27.812;2023-07-13T06:24:55;12.52;;;11.25;;
10114;SDS011;5097;43.260;27.812;2023-07-13T06:27:39;15.60;;;12.02;;
10114;SDS011;5097;43.260;27.812;2023-07-13T06:30:23;12.23;;;11.23;;
10114;SDS011;5097;43.260;27.812;2023-07-13T06:33:07;12.35;;;11.15;;
10114;SDS011;5097;43.260;27.812;2023-07-13T06:35:53;13.68;;;11.05;;
10114;SDS011;5097;43.260;27.812;2023-07-13T06:38:38;13.77;;;12.48;;
10114;SDS011;5097;43.260;27.812;2023-07-13T06:41:22;13.07;;;11.77;;
10114;SDS011;5097;43.260;27.812;2023-07-13T06:44:08;15.82;;;12.20;;
10114;SDS011;5097;43.260;27.812;2023-07-13T06:46:52;13.35;;;12.07;;
10114;SDS011;5097;43.260;27.812;2023-07-13T06:49:36;15.15;;;12.18;;
10114;SDS011;5097;43.260;27.812;2023-07-13T06:52:21;13.77;;;12.38;;
10114;SDS011;5097;43.260;27.812;2023-07-13T06:55:05;14.25;;;11.88;;
10114;SDS011;5097;43.260;27.812;2023-07-13T06:57:50;13.95;;;12.52;;
10114;SDS011;5097;43.260;27.812;2023-07-13T07:00:34;17.08;;;11.88;;
10114;SDS011;5097;43.260;27.812;2023-07-13T07:03:18;15.65;;;13.63;;
10114;SDS011;5097;43.260;27.812;2023-07-13T07:06:03;14.55;;;12.13;;
10114;SDS011;5097;43.260;27.812;2023-07-13T07:08:58;12.38;;;11.25;;
10114;SDS011;5097;43.260;27.812;2023-07-13T07:11:42;13.20;;;11.70;;
10114;SDS011;5097;43.260;27.812;2023-07-13T07:14:44;13.85;;;12.52;;
10114;SDS011;5097;43.260;27.812;2023-07-13T07:17:28;13.90;;;12.02;;
10114;SDS011;5097;43.260;27.812;2023-07-13T07:20:12;15.60;;;11.10;;
10114;SDS011;5097;43.260;27.812;2023-07-13T07:22:56;12.57;;;11.43;;
10114;SDS011;5097;43.260;27.812;2023-07-13T07:25:42;12.90;;;11.13;;
10114;SDS011;5097;43.260;27.812;2023-07-13T07:28:28;12.77;;;11.45;;
10114;SDS011;5097;43.260;27.812;2023-07-13T07:31:24;15.30;;;11.73;;
10114;SDS011;5097;43.260;27.812;2023-07-13T07:34:11;14.02;;;11.55;;
10114;SDS011;5097;43.260;27.812;2023-07-13T07:36:56;13.85;;;11.50;;
10114;SDS011;5097;43.260;27.812;2023-07-13T07:39:45;15.32;;;11.15;;
10114;SDS011;5097;43.260;27.812;2023-07-13T07:42:50;12.90;;;11.75;;
10114;SDS011;5097;43.260;27.812;2023-07-13T07:45:34;13.18;;;11.88;;
10114;SDS011;5097;43.260;27.812;2023-07-13T07:48:19;14.30;;;11.85;;
10114;SDS011;5097;43.260;27.812;2023-07-13T07:51:03;13.38;;;11.90;;
10114;SDS011;5097;43.260;27.812;2023-07-13T07:53:47;15.98;;;12.45;;
10114;SDS011;5097;43.260;27.812;2023-07-13T07:56:31;15.05;;;12.55;;
10114;SDS011;5097;43.260;27.812;2023-07-13T07:59:20;13.40;;;11.73;;
10114;SDS011;5097;43.260;27.812;2023-07-13T08:02:08;15.18;;;12.07;;
10114;SDS011;5097;43.260;27.812;2023-07-13T08:05:13;13.07;;;11.80;;
10114;SDS011;5097;43.260;27.812;2023-07-13T08:08:00;13.10;;;11.75;;
10114;SDS011;5097;43.260;27.812;2023-07-13T08:10:44;16.83;;;11.68;;
10114;SDS011;5097;43.260;27.812;2023-07-13T08:13:28;12.77;;;11.50;;
10114;SDS011;5097;43.260;27.812;2023-07-13T08:16:13;12.57;;;11.35;;
10114;SDS011;5097;43.260;27.812;2023-07-13T08:18:57;13.13;;;11.90;;
10114;SDS011;5097;43.260;27.812;2023-07-13T08:21:41;14.98;;;12.35;;
10114;SDS011;5097;43.260;27.812;2023-07-13T08:24:25;13.40;;;11.73;;
10114;SDS011;5097;43.260;27.812;2023-07-13T08:27:09;12.68;;;11.50;;
10114;SDS011;5097;43.260;27.812;2023-07-13T08:29:54;13.75;;;11.73;;
10114;SDS011;5097;43.260;27.812;2023-07-13T08:32:39;13.60;;;12.05;;
10114;SDS011;5097;43.260;27.812;2023-07-13T08:35:24;16.38;;;11.55;;
10114;SDS011;5097;43.260;27.812;2023-07-13T08:38:09;21.08;;;11.80;;
10114;SDS011;5097;43.260;27.812;2023-07-13T08:40:54;13.07;;;11.85;;
10114;SDS011;5097;43.260;27.812;2023-07-13T08:43:39;16.20;;;11.88;;
10114;SDS011;5097;43.260;27.812;2023-07-13T08:46:27;13.35;;;11.23;;
10114;SDS011;5097;43.260;27.812;2023-07-13T08:49:17;13.43;;;11.35;;
10114;SDS011;5097;43.260;27.812;2023-07-13T08:52:06;15.95;;;12.60;;
10114;SDS011;5097;43.260;27.812;2023-07-13T08:54:56;12.38;;;11.07;;
10114;SDS011;5097;43.260;27.812;2023-07-13T08:57:46;12.48;;;11.35;;
10114;SDS011;5097;43.260;27.812;2023-07-13T09:00:48;14.55;;;11.35;;
10114;SDS011;5097;43.260;27.812;2023-07-13T09:03:44;13.70;;;11.48;;
10114;SDS011;5097;43.260;27.812;2023-07-13T09:06:37;13.80;;;12.43;;
10114;SDS011;5097;43.260;27.812;2023-07-13T09:09:36;12.55;;;11.02;;
10114;SDS011;5097;43.260;27.812;2023-07-13T09:12:34;13.45;;;11.52;;
10114;SDS011;5097;43.260;27.812;2023-07-13T09:15:25;16.05;;;11.27;;
10114;SDS011;5097;43.260;27.812;2023-07-13T09:18:14;11.93;;;10.63;;
10114;SDS011;5097;43.260;27.812;2023-07-13T09:21:03;12.88;;;11.63;;
10114;SDS011;5097;43.260;27.812;2023-07-13T09:23:53;12.38;;;11.00;;
10114;SDS011;5097;43.260;27.812;2023-07-13T09:26:40;12.90;;;11.57;;
10114;SDS011;5097;43.260;27.812;2023-07-13T09:29:26;19.08;;;11.93;;
10114;SDS011;5097;43.260;27.812;2023-07-13T09:32:13;13.45;;;12.05;;
10114;SDS011;5097;43.260;27.812;2023-07-13T09:35:01;16.75;;;12.50;;
10114;SDS011;5097;43.260;27.812;2023-07-13T09:37:57;13.77;;;12.35;;
10114;SDS011;5097;43.260;27.812;2023-07-13T09:44:01;16.23;;;11.55;;
10114;SDS011;5097;43.260;27.812;2023-07-13T09:46:55;13.98;;;11.48;;
10114;SDS011;5097;43.260;27.812;2023-07-13T09:49:39;14.45;;;12.27;;
10114;SDS011;5097;43.260;27.812;2023-07-13T09:52:26;14.00;;;11.40;;
10114;SDS011;5097;43.260;27.812;2023-07-13T09:55:23;12.63;;;11.45;;
10114;SDS011;5097;43.260;27.812;2023-07-13T09:58:12;14.90;;;11.55;;
10114;SDS011;5097;43.260;27.812;2023-07-13T10:00:58;16.10;;;11.20;;
10114;SDS011;5097;43.260;27.812;2023-07-13T10:03:51;11.20;;;10.20;;
10114;SDS011;5097;43.260;27.812;2023-07-13T10:06:38;11.85;;;10.65;;
10114;SDS011;5097;43.260;27.812;2023-07-13T10:09:23;12.00;;;10.82;;
10114;SDS011;5097;43.260;27.812;2023-07-13T10:12:12;16.00;;;10.68;;
10114;SDS011;5097;43.260;27.812;2023-07-13T10:15:00;11.95;;;10.85;;
10114;SDS011;5097;43.260;27.812;2023-07-13T10:18:07;11.65;;;10.32;;
10114;SDS011;5097;43.260;27.812;2023-07-13T10:20:58;13.27;;;9.50;;
10114;SDS011;5097;43.260;27.812;2023-07-13T10:24:14;14.98;;;9.75;;
10114;SDS011;5097;43.260;27.812;2023-07-13T10:27:03;11.10;;;10.00;;
10114;SDS011;5097;43.260;27.812;2023-07-13T10:29:55;15.25;;;10.32;;
10114;SDS011;5097;43.260;27.812;2023-07-13T10:32:46;11.30;;;10.00;;
10114;SDS011;5097;43.260;27.812;2023-07-13T10:35:30;10.75;;;9.63;;
10114;SDS011;5097;43.260;27.812;2023-07-13T10:38:17;11.13;;;10.05;;
10114;SDS011;5097;43.260;27.812;2023-07-13T10:41:06;12.05;;;10.30;;
10114;SDS011;5097;43.260;27.812;2023-07-13T10:43:55;17.45;;;10.68;;
10114;SDS011;5097;43.260;27.812;2023-07-13T10:46:42;10.57;;;9.63;;
10114;SDS011;5097;43.260;27.812;2023-07-13T10:49:27;18.75;;;11.23;;
10114;SDS011;5097;43.260;27.812;2023-07-13T10:55:31;12.02;;;10.73;;
10114;SDS011;5097;43.260;27.812;2023-07-13T10:58:22;10.68;;;9.60;;
10114;SDS011;5097;43.260;27.812;2023-07-13T11:01:12;10.90;;;9.57;;
10114;SDS011;5097;43.260;27.812;2023-07-13T11:04:00;12.40;;;9.75;;
10114;SDS011;5097;43.260;27.812;2023-07-13T11:06:47;10.65;;;9.57;;
10114;SDS011;5097;43.260;27.812;2023-07-13T11:09:34;11.82;;;10.68;;
10114;SDS011;5097;43.260;27.812;2023-07-13T11:12:28;14.68;;;10.20;;
10114;SDS011;5097;43.260;27.812;2023-07-13T11:15:44;13.55;;;10.50;;
10114;SDS011;5097;43.260;27.812;2023-07-13T11:18:31;16.40;;;10.55;;
10114;SDS011;5097;43.260;27.812;2023-07-13T11:21:17;11.52;;;9.10;;
10114;SDS011;5097;43.260;27.812;2023-07-13T11:24:14;11.30;;;9.77;;
10114;SDS011;5097;43.260;27.812;2023-07-13T11:27:00;11.65;;;10.05;;
10114;SDS011;5097;43.260;27.812;2023-07-13T11:30:22;14.15;;;10.18;;
10114;SDS011;5097;43.260;27.812;2023-07-13T11:33:10;13.27;;;9.98;;
10114;SDS011;5097;43.260;27.812;2023-07-13T11:35:59;14.18;;;10.48;;
10114;SDS011;5097;43.260;27.812;2023-07-13T11:38:51;11.35;;;10.15;;
10114;SDS011;5097;43.260;27.812;2023-07-13T11:41:43;10.65;;;9.68;;
10114;SDS011;5097;43.260;27.812;2023-07-13T11:44:29;10.98;;;10.00;;
10114;SDS011;5097;43.260;27.812;2023-07-13T11:47:16;11.68;;;10.40;;
10114;SDS011;5097;43.260;27.812;2023-07-13T11:50:04;11.98;;;10.15;;
10114;SDS011;5097;43.260;27.812;2023-07-13T11:52:49;11.43;;;9.88;;
10114;SDS011;5097;43.260;27.812;2023-07-13T11:55:37;10.65;;;9.40;;
10114;SDS011;5097;43.260;27.812;2023-07-13T11:58:23;12.73;;;10.20;;
10114;SDS011;5097;43.260;27.812;2023-07-13T12:01:15;12.15;;;9.38;;
10114;SDS011;5097;43.260;27.812;2023-07-13T12:04:04;11.65;;;9.90;;
10114;SDS011;5097;43.260;27.812;2023-07-13T12:06:53;11.48;;;9.27;;
10114;SDS011;5097;43.260;27.812;2023-07-13T12:09:40;16.52;;;10.05;;
10114;SDS011;5097;43.260;27.812;2023-07-13T12:12:29;10.63;;;9.60;;
10114;SDS011;5097;43.260;27.812;2023-07-13T12:15:14;12.93;;;10.73;;
10114;SDS011;5097;43.260;27.812;2023-07-13T12:17:58;11.57;;;10.43;;
10114;SDS011;5097;43.260;27.812;2023-07-13T12:20:42;10.98;;;9.88;;
10114;SDS011;5097;43.260;27.812;2023-07-13T12:23:29;13.20;;;11.05;;
10114;SDS011;5097;43.260;27.812;2023-07-13T12:26:15;11.65;;;10.38;;
10114;SDS011;5097;43.260;27.812;2023-07-13T12:29:04;11.90;;;10.68;;
10114;SDS011;5097;43.260;27.812;2023-07-13T12:31:50;11.98;;;10.75;;
10114;SDS011;5097;43.260;27.812;2023-07-13T12:34:49;11.70;;;10.70;;
10114;SDS011;5097;43.260;27.812;2023-07-13T12:37:35;11.30;;;10.20;;
10114;SDS011;5097;43.260;27.812;2023-07-13T12:40:20;12.48;;;11.20;;
10114;SDS011;5097;43.260;27.812;2023-07-13T12:43:10;12.38;;;10.32;;
10114;SDS011;5097;43.260;27.812;2023-07-13T12:45:58;11.60;;;10.35;;
10114;SDS011;5097;43.260;27.812;2023-07-13T12:48:47;13.43;;;11.05;;
10114;SDS011;5097;43.260;27.812;2023-07-13T12:51:49;23.83;;;11.57;;
10114;SDS011;5097;43.260;27.812;2023-07-13T12:54:33;21.77;;;11.52;;
10114;SDS011;5097;43.260;27.812;2023-07-13T12:57:18;24.40;;;12.60;;
10114;SDS011;5097;43.260;27.812;2023-07-13T13:00:02;24.55;;;11.63;;
10114;SDS011;5097;43.260;27.812;2023-07-13T13:02:49;12.40;;;10.20;;
10114;SDS011;5097;43.260;27.812;2023-07-13T13:05:34;18.52;;;9.57;;
10114;SDS011;5097;43.260;27.812;2023-07-13T13:08:20;10.95;;;9.73;;
10114;SDS011;5097;43.260;27.812;2023-07-13T13:11:04;10.50;;;9.50;;
10114;SDS011;5097;43.260;27.812;2023-07-13T13:13:48;13.90;;;10.50;;
10114;SDS011;5097;43.260;27.812;2023-07-13T13:16:33;10.27;;;9.25;;
10114;SDS011;5097;43.260;27.812;2023-07-13T13:19:21;13.63;;;10.45;;
10114;SDS011;5097;43.260;27.812;2023-07-13T13:22:07;9.70;;;8.70;;
10114;SDS011;5097;43.260;27.812;2023-07-13T13:24:51;12.05;;;9.05;;
10114;SDS011;5097;43.260;27.812;2023-07-13T13:27:35;14.50;;;9.68;;
10114;SDS011;5097;43.260;27.812;2023-07-13T13:30:19;15.38;;;9.57;;
10114;SDS011;5097;43.260;27.812;2023-07-13T13:33:04;10.77;;;8.88;;
10114;SDS011;5097;43.260;27.812;2023-07-13T13:35:54;12.20;;;9.75;;
10114;SDS011;5097;43.260;27.812;2023-07-13T13:38:38;13.35;;;9.88;;
10114;SDS011;5097;43.260;27.812;2023-07-13T13:41:22;10.52;;;8.90;;
10114;SDS011;5097;43.260;27.812;2023-07-13T13:44:08;14.13;;;9.63;;
10114;SDS011;5097;43.260;27.812;2023-07-13T13:46:53;12.23;;;8.95;;
10114;SDS011;5097;43.260;27.812;2023-07-13T13:49:39;10.38;;;9.23;;
10114;SDS011;5097;43.260;27.812;2023-07-13T13:52:24;17.23;;;9.77;;
10114;SDS011;5097;43.260;27.812;2023-07-13T13:55:12;13.98;;;8.85;;
10114;SDS011;5097;43.260;27.812;2023-07-13T13:57:56;10.25;;;7.60;;
10114;SDS011;5097;43.260;27.812;2023-07-13T14:00:41;11.57;;;8.18;;
10114;SDS011;5097;43.260;27.812;2023-07-13T14:03:27;9.63;;;8.35;;
10114;SDS011;5097;43.260;27.812;2023-07-13T14:06:11;10.77;;;8.38;;
10114;SDS011;5097;43.260;27.812;2023-07-13T14:08:58;11.00;;;8.95;;
10114;SDS011;5097;43.260;27.812;2023-07-13T14:11:43;9.30;;;8.38;;
10114;SDS011;5097;43.260;27.812;2023-07-13T14:14:31;10.40;;;8.02;;
10114;SDS011;5097;43.260;27.812;2023-07-13T14:17:18;15.18;;;9.27;;
10114;SDS011;5097;43.260;27.812;2023-07-13T14:20:05;11.45;;;9.32;;
10114;SDS011;5097;43.260;27.812;2023-07-13T14:22:54;11.45;;;8.23;;
10114;SDS011;5097;43.260;27.812;2023-07-13T14:25:40;13.13;;;8.20;;
10114;SDS011;5097;43.260;27.812;2023-07-13T14:28:24;10.35;;;7.80;;
10114;SDS011;5097;43.260;27.812;2023-07-13T14:31:12;10.15;;;8.20;;
10114;SDS011;5097;43.260;27.812;2023-07-13T14:33:57;8.77;;;7.65;;
10114;SDS011;5097;43.260;27.812;2023-07-13T14:36:41;10.98;;;9.10;;
10114;SDS011;5097;43.260;27.812;2023-07-13T14:39:27;12.00;;;8.60;;
10114;SDS011;5097;43.260;27.812;2023-07-13T14:42:13;15.23;;;8.60;;
10114;SDS011;5097;43.260;27.812;2023-07-13T14:44:57;9.05;;;8.10;;
10114;SDS011;5097;43.260;27.812;2023-07-13T14:47:42;13.13;;;9.13;;
10114;SDS011;5097;43.260;27.812;2023-07-13T14:50:28;10.35;;;8.75;;
10114;SDS011;5097;43.260;27.812;2023-07-13T14:53:14;11.73;;;8.23;;
10114;SDS011;5097;43.260;27.812;2023-07-13T14:55:58;12.63;;;9.00;;
10114;SDS011;5097;43.260;27.812;2023-07-13T14:58:43;9.85;;;8.93;;
10114;SDS011;5097;43.260;27.812;2023-07-13T15:01:27;11.48;;;10.27;;
10114;SDS011;5097;43.260;27.812;2023-07-13T15:04:13;11.43;;;8.68;;
10114;SDS011;5097;43.260;27.812;2023-07-13T15:06:57;14.20;;;8.98;;
10114;SDS011;5097;43.260;27.812;2023-07-13T15:09:43;12.88;;;9.75;;
10114;SDS011;5097;43.260;27.812;2023-07-13T15:12:27;14.93;;;9.45;;
10114;SDS011;5097;43.260;27.812;2023-07-13T15:15:13;10.10;;;9.07;;
10114;SDS011;5097;43.260;27.812;2023-07-13T15:17:57;13.73;;;9.18;;
10114;SDS011;5097;43.260;27.812;2023-07-13T15:20:44;9.32;;;7.95;;
10114;SDS011;5097;43.260;27.812;2023-07-13T15:23:28;10.88;;;8.82;;
10114;SDS011;5097;43.260;27.812;2023-07-13T15:26:12;9.90;;;8.82;;
10114;SDS011;5097;43.260;27.812;2023-07-13T15:28:57;9.45;;;8.40;;
10114;SDS011;5097;43.260;27.812;2023-07-13T15:31:42;12.02;;;8.98;;
10114;SDS011;5097;43.260;27.812;2023-07-13T15:34:27;10.75;;;9.40;;
10114;SDS011;5097;43.260;27.812;2023-07-13T15:37:12;10.95;;;8.52;;
10114;SDS011;5097;43.260;27.812;2023-07-13T15:39:58;12.82;;;8.20;;
10114;SDS011;5097;43.260;27.812;2023-07-13T15:42:44;11.05;;;9.25;;
10114;SDS011;5097;43.260;27.812;2023-07-13T15:45:28;11.15;;;9.35;;
10114;SDS011;5097;43.260;27.812;2023-07-13T15:48:15;10.38;;;9.10;;
10114;SDS011;5097;43.260;27.812;2023-07-13T15:51:00;10.43;;;9.43;;
10114;SDS011;5097;43.260;27.812;2023-07-13T15:53:46;10.85;;;9.77;;
10114;SDS011;5097;43.260;27.812;2023-07-13T15:56:32;11.32;;;10.23;;
10114;SDS011;5097;43.260;27.812;2023-07-13T15:59:19;11.52;;;9.98;;
10114;SDS011;5097;43.260;27.812;2023-07-13T16:02:08;23.92;;;11.82;;
10114;SDS011;5097;43.260;27.812;2023-07-13T16:04:57;15.30;;;11.02;;
10114;SDS011;5097;43.260;27.812;2023-07-13T16:07:41;74.68;;;21.70;;
10114;SDS011;5097;43.260;27.812;2023-07-13T16:10:26;285.33;;;50.65;;
10114;SDS011;5097;43.260;27.812;2023-07-13T16:13:15;86.57;;;20.52;;
10114;SDS011;5097;43.260;27.812;2023-07-13T16:16:01;16.75;;;11.70;;
10114;SDS011;5097;43.260;27.812;2023-07-13T16:18:45;13.52;;;12.00;;
10114;SDS011;5097;43.260;27.812;2023-07-13T16:21:31;13.20;;;11.15;;
10114;SDS011;5097;43.260;27.812;2023-07-13T16:24:18;13.25;;;11.93;;
10114;SDS011;5097;43.260;27.812;2023-07-13T16:27:04;14.98;;;12.95;;
10114;SDS011;5097;43.260;27.812;2023-07-13T16:29:48;14.60;;;11.55;;